Northern & Central Napa County

33 Stations

15 Minute Data | America/Los_Angeles
as of 9/5/26 4:42 AM PDT
Station Date Time Temp (°F) RH (%) Dew Pt (°F) Wind Spd (mph) Wind Dir (°) Wind Gust (mph) Latest Rain (In) Daily Rain (In) Daily Max Temp (°F) Daily Min Temp (°F)
Tenma (North Calistoga) 9/5/26 0430 47.9   5.0 - - - - - 0.00 0.00 51.0   5.6 47.9   4.1
Calistoga-Solari 9/5/26 0430 46.0   3.1 96   1 45.0   3.4 0.0   0.4 N | 353 0.7   0.6 0.00 0.00 52.0   4.8 45.8   2.9
Calistoga-North 9/5/26 0430 47.7   4.2 97   2 46.9   4.7 - - - 0.00 0.00 50.8   5.6 46.9   3.4
Twomey Calistoga 9/5/26 0430 43.0   6.2 94   1 41.5   5.9 0.4   0.8 W | 262 1.6   0.6 0.00 0.00 53.2   1.3 42.9   6.3
Paloma 9/5/26 0430 45.1   7.9 93   4 43.1   8.9 1.0   0.0 W | 261 2.3   1.4 0.00 0.00 51.1   5.5 45.0   6.1
Calistoga (Ranch 78) 9/5/26 0430 44.6   8.0 91   2 42.2   8.7 0.1   1.8 NW | 323 1.2   2.6 0.00 0.00 53.4   2.5 44.6   7.5
Diamond Mtn (Schramsberg) 9/5/26 0430 52.3   0.4 87   13 48.6   3.4 - - - 0.00 0.00 54.7   1.3 51.3   0.2
Diamond Mtn (McEachran) 9/5/26 0430 51.8   2.5 89   3 48.8   3.5 - - - - - 55.1   1.5 51.8   2.3
Deer Park 9/5/26 0430 52.3   2.6 85   5 47.8   4.2 1.4   3.7 NW | 319 2.6   7.8 0.00 0.00 57.8   0.7 52.3   2.6
St. Helena-North 9/5/26 0430 48.9   4.3 87   2 45.3   4.9 1.5   1.2 WNW | 294 2.4   0.7 0.00 0.00 53.4   2.6 48.7   3.9
St. Helena (NVV Office) 9/5/26 0430 49.0   5.6 - - 0.2   0.5 NW | 308 1.0   2.2 0.00 0.00 56.2   1.4 48.6   5.7
Tiara Fria (East St. Helena) 9/5/26 0430 45.3   4.9 87   7 41.8   7.0 0.0   0.3 N | 0 0.0   1.8 0.00 0.00 50.9   3.8 45.2   4.5
Prisoner Winery 9/5/26 0430 46.1   3.8 95   2 44.8   4.3 0.0   0.2 N | 0 0.0   1.8 0.00 0.00 50.2   4.8 45.4   4.2
Rutherford Hill Estate 9/5/26 0430 51.2   2.5 90   10 48.5   5.2 1.3   0.2 E | 100 2.2   0.2 0.00 0.00 54.2   2.4 51.1   2.4
Rutherford-North (Mee Ln) 9/5/26 0430 43.2   3.3 91   5 40.7   4.7 0.5   0.1 NNW | 337 1.3   0.7 0.00 0.00 48.8   2.8 42.7   3.4
Rutherford (STS) 9/5/26 0430 44.2   4.6 91   2 41.6   4.1 0.2   0.8 W | 275 0.9   1.8 0.00 0.00 49.5   5.0 42.9   4.9
Silver Oak OV 9/5/26 0430 43.6   7.9 91   4 41.2   9.2 0.9   0.0 NW | 305 1.8   0.4 0.00 0.00 48.4   9.4 43.0   7.2
Oakville-NE (Ranch 88) 9/5/26 0430 42.6   6.6 85   15 38.3   10.9 0.0   0.0 N | 0 0.0   0.0 0.00 0.00 46.7   9.2 42.2   6.8
Crossroads Ranch 9/5/26 0430 44.0   8.0 89   6 41.1   9.7 0.2   0.5 NNW | 341 1.2   0.9 0.00 0.00 48.3   9.8 44.0   7.4
Oakville 9/5/26 0430 43.2   8.9 89   7 40.2   10.8 0.5   0.0 W | 270 1.7   0.2 0.00 0.00 48.0   8.9 43.1   8.1
To Kalon Remote (TKKE) 9/5/26 0430 44.2   4.2 - - - - - - - 49.3   6.7 44.1   3.9
To Kalon 9/5/26 0430 45.3   5.0 92   4 43.2   6.1 0.6   0.4 W | 269 1.3   0.7 0.00 0.00 49.7   6.0 45.2   4.9
To Kalon Remote (TKN5) 9/5/26 0430 44.9   6.0 - - - - - - - 49.9   7.4 44.8   5.9
Jump Rock 9/5/26 0430 43.2   3.4 98   1 42.7   3.8 0.3   0.1 ENE | 57 2.1   0.3 0.00 0.00 48.4   6.1 43.0   3.5
State Lane Ranch 9/5/26 0430 42.8   13.8 96   2 41.8   14.4 0.2   0.2 NNE | 24 1.4   0.0 0.00 0.00 47.9   10.8 42.3   12.3
Yountville (Ranch 67) 9/5/26 0430 43.7   12.0 90   5 40.9   13.4 0.5   0.4 NNW | 341 1.3   0.1 0.00 0.00 47.6   10.2 43.5   9.4
Borreo (Soda Canyon) 9/5/26 0430 46.6   3.5 96   1 45.4   3.7 0.3   0.2 NW | 312 1.8   0.4 0.00 0.00 49.2   7.3 46.2   3.7
Wappo Hill Floor 9/5/26 0430 43.2   11.4 100   0 43.2   11.4 0.0   0.0 N | 0 0.0   1.4 0.00 0.00 48.0   8.5 43.2   10.4
Wappo Hill 9/5/26 0430 50.3   6.9 92   4 48.1   8.1 1.9   1.4 WNW | 289 2.8   1.1 0.00 0.00 53.9   5.2 50.3   5.6
Stags Leap Dist (Chimney Rock) 9/5/26 0430 43.4   14.0 96   3 42.2   14.8 0.0   0.7 N | 0 0.0   2.3 0.00 0.00 47.8   10.4 43.3   12.3
Stags Leap Dist (Silverado Vineyards) 9/5/26 0430 43.7   12.2 91   4 41.4   13.1 0.0   0.0 N | 0 0.0   0.5 0.00 0.00 48.6   9.1 43.6   10.0
Yountville-SE (Ranch 85) 9/5/26 0430 46.1   11.3 95   5 44.7   12.6 0.0   0.0 N | 0 0.0   0.0 0.00 0.00 49.8   8.0 45.5   9.6
Yountville-South (Ranch 87) 9/5/26 0430 45.0   12.3 96   4 43.8   13.5 0.2   0.3 NNW | 328 1.8   0.0 0.00 0.00 49.1   8.4 44.4   9.8
Max     52.3 100 48.8 1.9 - 2.8 0.00 0.00 57.8 52.3
Avg     45.9 92 43.6 0.4 - 1.2 0.00 - - -
Min     42.6 85 38.3 0.0 - 0.0 0.00 0.00 46.7 42.2